Time;durP1;ratioP1;P1;durP2;ratioP2;P2;SDS_P1;SDS_P2;PMS_P1;PMS_P2;Temp;Humidity;BMP_temperature;BMP_pressure;BME280_temperature;BME280_humidity;BME280_pressure;Samples;Min_cycle;Max_cycle;Signal;HPM_P1;HPM_P2
2023/09/20 00:01:40;;;;;;;1.60;1.60;;;;;;;17.10;80.31;97210.19;5005029;28;20056;-72
2023/09/20 00:04:07;;;;;;;1.70;1.70;;;;;;;17.22;80.00;97200.50;5006065;28;20065;-72
2023/09/20 00:06:34;;;;;;;1.50;1.50;;;;;;;17.16;80.25;97213.34;5004821;28;20136;-74
2023/09/20 00:09:02;;;;;;;1.50;1.50;;;;;;;17.28;79.57;97204.47;5006118;28;20174;-72
2023/09/20 00:11:29;;;;;;;1.60;1.60;;;;;;;17.27;79.42;97197.28;5004882;28;20138;-72
2023/09/20 00:13:59;;;;;;;1.60;1.60;;;;;;;17.17;79.82;97198.13;5004441;28;20058;-73
2023/09/20 00:16:28;;;;;;;1.50;1.50;;;;;;;17.22;79.71;97200.50;5006301;28;20080;-73
2023/09/20 00:18:55;;;;;;;1.70;1.70;;;;;;;16.98;79.68;97162.25;5005894;28;20076;-74
2023/09/20 00:21:23;;;;;;;1.42;1.42;;;;;;;17.01;79.75;97161.47;5005660;28;20049;-75
2023/09/20 00:23:50;;;;;;;1.60;1.60;;;;;;;17.21;80.28;97188.53;5005572;28;20532;-73
2023/09/20 00:26:20;;;;;;;1.70;1.70;;;;;;;17.27;79.58;97188.88;5004025;28;20050;-73
2023/09/20 00:28:48;;;;;;;1.60;1.60;;;;;;;17.25;79.73;97177.28;5020744;28;20501;-73
2023/09/20 00:31:15;;;;;;;1.80;1.80;;;;;;;17.12;79.15;97129.38;5003701;28;20054;-73
2023/09/20 00:33:43;;;;;;;1.77;1.77;;;;;;;17.50;78.74;97166.72;5005646;28;20056;-74
2023/09/20 00:36:19;;;;;;;1.50;1.50;;;;;;;17.45;79.04;97153.19;5005485;28;20046;-74
2023/09/20 00:38:47;;;;;;;1.70;1.70;;;;;;;17.42;78.89;97148.38;5004141;28;20802;-73
2023/09/20 00:41:15;;;;;;;1.33;1.33;;;;;;;17.07;78.25;97087.06;5005246;28;20054;-73
2023/09/20 00:43:42;;;;;;;1.88;1.88;;;;;;;17.39;78.46;97126.78;5005702;28;20296;-74
2023/09/20 00:46:11;;;;;;;1.58;1.58;;;;;;;17.52;78.68;97136.31;4976463;28;20082;-73
2023/09/20 00:48:39;;;;;;;1.48;1.48;;;;;;;17.49;78.40;97142.72;4965240;28;20137;-73
2023/09/20 00:51:07;;;;;;;1.70;1.70;;;;;;;17.52;78.27;97133.50;4966381;28;20439;-73
2023/09/20 00:53:35;;;;;;;1.75;1.75;;;;;;;17.42;79.09;97125.97;4966424;28;20047;-72
2023/09/20 00:56:04;;;;;;;1.70;1.70;;;;;;;17.42;79.11;97109.16;4965742;28;20489;-73
2023/09/20 00:58:34;;;;;;;1.45;1.45;;;;;;;17.38;79.59;97097.19;4965975;28;20059;-72
2023/09/20 01:01:03;;;;;;;1.88;1.88;;;;;;;16.94;79.38;97038.38;4964752;28;20054;-72
2023/09/20 01:03:35;;;;;;;1.48;1.48;;;;;;;17.39;79.28;97107.16;4964535;28;20565;-72
2023/09/20 01:06:08;;;;;;;1.70;1.70;;;;;;;17.10;80.78;97120.63;4966046;28;20055;-72
2023/09/20 01:08:35;;;;;;;1.60;1.60;;;;;;;16.89;82.49;97122.75;4964292;28;20587;-71
2023/09/20 01:11:02;;;;;;;1.45;1.45;;;;;;;17.16;81.14;97112.56;4965742;28;20150;-73
2023/09/20 01:13:29;;;;;;;1.55;1.55;;;;;;;16.71;83.47;97096.91;4965685;28;20113;-71
2023/09/20 01:15:56;;;;;;;1.42;1.42;;;;;;;16.05;87.44;97094.00;4964352;28;20077;-71
2023/09/20 01:18:22;;;;;;;1.60;1.60;;;;;;;15.81;87.28;97041.78;4966179;28;20109;-71
2023/09/20 01:20:49;;;;;;;1.40;1.40;;;;;;;16.53;85.52;97131.34;4965760;28;20070;-73
2023/09/20 01:23:16;;;;;;;1.50;1.50;;;;;;;16.72;84.50;97127.28;4965793;28;20055;-74
2023/09/20 01:25:43;;;;;;;1.42;1.42;;;;;;;16.48;83.98;97042.31;4965177;28;20058;-74
2023/09/20 01:28:10;;;;;;;1.60;1.60;;;;;;;16.22;87.33;97103.50;4964390;28;20058;-74
2023/09/20 01:30:41;;;;;;;1.35;1.35;;;;;;;16.31;87.69;97107.44;4965717;28;20129;-74
2023/09/20 01:33:09;;;;;;;1.52;1.52;;;;;;;16.42;87.77;97102.59;4980487;28;20058;-74
2023/09/20 01:35:37;;;;;;;1.40;1.40;;;;;;;16.56;87.45;97102.59;4965441;28;20054;-72
2023/09/20 01:38:04;;;;;;;1.50;1.50;;;;;;;16.67;87.93;97124.09;4965919;28;20047;-75
2023/09/20 01:40:33;;;;;;;1.50;1.50;;;;;;;16.59;86.97;97123.34;4965224;28;20150;-72
2023/09/20 01:43:03;;;;;;;1.40;1.40;;;;;;;16.59;87.20;97129.72;4965751;28;20264;-74
2023/09/20 01:45:32;;;;;;;1.60;1.60;;;;;;;16.43;87.59;97112.59;4963849;28;20121;-70
2023/09/20 01:48:05;;;;;;;1.45;1.45;;;;;;;16.24;87.62;97073.94;4965682;28;20156;-74
2023/09/20 01:50:32;;;;;;;1.52;1.52;;;;;;;16.58;87.46;97156.09;4965159;28;20544;-72
2023/09/20 01:53:00;;;;;;;1.50;1.50;;;;;;;16.50;87.49;97137.75;4963853;28;20074;-74
2023/09/20 01:55:31;;;;;;;1.50;1.50;;;;;;;16.09;87.53;97089.16;4965648;28;20117;-73
2023/09/20 01:58:06;;;;;;;1.45;1.45;;;;;;;15.91;87.52;97038.16;4965771;28;20126;-72
2023/09/20 02:00:37;;;;;;;1.52;1.52;;;;;;;16.52;87.90;97124.16;4965349;28;20090;-72
2023/09/20 02:03:11;;;;;;;1.50;1.50;;;;;;;16.21;87.48;97057.19;4963838;28;20054;-72
2023/09/20 02:05:37;;;;;;;1.60;1.60;;;;;;;16.66;87.28;97116.91;4963946;28;20077;-74
2023/09/20 02:08:05;;;;;;;1.48;1.48;;;;;;;16.74;86.76;97108.06;4965311;28;20059;-72
2023/09/20 02:10:32;;;;;;;1.70;1.70;;;;;;;16.29;86.77;97053.97;4965064;28;20046;-71
2023/09/20 02:12:59;;;;;;;1.58;1.58;;;;;;;16.68;86.59;97108.91;4964890;28;20066;-73
2023/09/20 02:15:28;;;;;;;1.52;1.52;;;;;;;16.63;86.69;97108.13;4965286;28;20522;-73
2023/09/20 02:17:55;;;;;;;1.60;1.60;;;;;;;16.63;86.93;97112.13;4979254;28;20061;-72
2023/09/20 02:20:23;;;;;;;1.70;1.70;;;;;;;16.63;87.00;97117.72;4965209;28;20130;-74
2023/09/20 02:22:53;;;;;;;1.50;1.50;;;;;;;16.68;86.82;97114.50;4965207;28;20129;-73
2023/09/20 02:25:21;;;;;;;1.30;1.30;;;;;;;16.64;87.21;97115.28;4979706;28;20054;-71
2023/09/20 02:27:49;;;;;;;1.45;1.45;;;;;;;16.38;87.92;97113.00;4965108;28;20088;-72
2023/09/20 02:30:24;;;;;;;1.50;1.50;;;;;;;15.94;91.69;97115.59;4965234;28;20054;-70
2023/09/20 02:32:52;;;;;;;1.33;1.33;;;;;;;16.23;89.85;97117.06;4964749;28;20137;-72
2023/09/20 02:35:20;;;;;;;1.30;1.30;;;;;;;15.82;92.77;97118.78;4964885;28;20057;-72
2023/09/20 02:37:48;;;;;;;1.33;1.33;;;;;;;15.92;92.18;97134.72;4964685;28;20054;-72
2023/09/20 02:40:15;;;;;;;1.20;1.20;;;;;;;15.85;90.88;97101.25;4962939;28;20050;-71
2023/09/20 02:42:47;;;;;;;1.48;1.48;;;;;;;16.04;91.13;97130.72;4964637;28;20573;-71
2023/09/20 02:45:15;;;;;;;1.45;1.45;;;;;;;16.02;89.75;97114.38;4964134;28;20054;-73
2023/09/20 02:47:43;;;;;;;1.20;1.20;;;;;;;15.55;89.86;97033.09;4979225;28;20518;-73
2023/09/20 02:50:13;;;;;;;1.20;1.20;;;;;;;16.13;89.71;97140.28;4979230;28;20203;-74
2023/09/20 02:52:40;;;;;;;1.27;1.27;;;;;;;16.17;89.92;97135.47;4964818;28;20057;-73
2023/09/20 02:55:08;;;;;;;1.50;1.50;;;;;;;16.11;90.45;97131.50;4964493;28;20049;-72
2023/09/20 02:57:38;;;;;;;1.30;1.30;;;;;;;16.09;90.82;97133.88;4964809;28;20055;-72
2023/09/20 03:00:14;;;;;;;1.48;1.48;;;;;;;16.21;90.54;97119.50;4965114;28;20307;-73
2023/09/20 03:02:46;;;;;;;1.48;1.48;;;;;;;16.20;90.66;97123.47;4965284;28;20054;-73
2023/09/20 03:05:15;;;;;;;1.58;1.58;;;;;;;16.23;90.00;97119.84;4963238;28;20061;-73
2023/09/20 03:07:46;;;;;;;1.50;1.50;;;;;;;16.33;89.10;97116.22;4963256;28;20046;-73
2023/09/20 03:10:14;;;;;;;1.33;1.33;;;;;;;16.17;88.12;97087.16;4964296;28;20062;-72
2023/09/20 03:12:44;;;;;;;1.48;1.48;;;;;;;16.26;88.69;97133.06;4964225;28;20078;-71
2023/09/20 03:15:12;;;;;;;1.42;1.42;;;;;;;15.35;88.89;96974.09;4963895;28;20055;-72
2023/09/20 03:17:39;;;;;;;1.38;1.38;;;;;;;16.35;89.71;97130.59;4963153;28;20089;-70
2023/09/20 03:20:16;;;;;;;1.10;1.10;;;;;;;15.90;92.21;97125.94;4966441;28;20086;-74
2023/09/20 03:22:43;;;;;;;1.52;1.52;;;;;;;16.03;92.35;97129.91;4966466;28;20470;-74
2023/09/20 03:25:10;;;;;;;1.42;1.42;;;;;;;16.16;91.80;97127.47;4966216;28;20065;-74
2023/09/20 03:27:40;;;;;;;1.40;1.40;;;;;;;16.00;92.01;97108.38;4967806;28;20054;-74
2023/09/20 03:30:10;;;;;;;1.27;1.27;;;;;;;16.08;92.55;97118.31;4967721;28;20055;-72
2023/09/20 03:32:40;;;;;;;1.30;1.30;;;;;;;16.11;92.16;97117.50;4967897;28;20058;-74
2023/09/20 03:35:09;;;;;;;1.30;1.30;;;;;;;16.03;91.89;97101.97;4966503;28;20069;-73
2023/09/20 03:37:37;;;;;;;1.27;1.27;;;;;;;16.06;92.09;97115.13;4967493;28;20513;-73
2023/09/20 03:40:06;;;;;;;1.40;1.40;;;;;;;15.48;93.05;97028.31;4966566;28;20051;-73
2023/09/20 03:42:33;;;;;;;1.40;1.40;;;;;;;16.11;92.53;97109.13;4967537;28;20057;-73
2023/09/20 03:45:00;;;;;;;1.33;1.33;;;;;;;15.96;92.73;97109.59;4966045;28;20065;-71
2023/09/20 03:47:27;;;;;;;1.40;1.40;;;;;;;16.04;92.52;97120.34;4967439;28;20422;-72
2023/09/20 03:49:54;;;;;;;1.40;1.40;;;;;;;16.03;91.85;97121.53;4967288;28;20066;-72
2023/09/20 03:52:21;;;;;;;1.20;1.20;;;;;;;15.95;92.09;97124.78;4967425;28;20055;-70
2023/09/20 03:54:50;;;;;;;1.30;1.30;;;;;;;16.01;91.02;97126.72;4967549;28;20043;-72
2023/09/20 03:57:19;;;;;;;1.40;1.40;;;;;;;16.04;91.03;97139.09;4967068;28;20051;-72
2023/09/20 03:59:47;;;;;;;1.42;1.42;;;;;;;15.81;92.62;97106.03;4965442;28;20047;-72
2023/09/20 04:02:14;;;;;;;1.42;1.42;;;;;;;15.96;92.98;97129.16;4967495;28;20137;-72
2023/09/20 04:04:41;;;;;;;1.35;1.35;;;;;;;15.63;93.23;97098.91;4965654;28;20058;-71
2023/09/20 04:07:07;;;;;;;1.40;1.40;;;;;;;15.94;93.66;97137.94;4966934;28;20540;-71
2023/09/20 04:09:35;;;;;;;1.30;1.30;;;;;;;15.92;93.43;97134.72;4967118;28;20057;-72
2023/09/20 04:12:05;;;;;;;1.42;1.42;;;;;;;15.82;93.07;97112.41;4966485;28;20061;-72
2023/09/20 04:14:32;;;;;;;1.48;1.48;;;;;;;15.49;92.72;97071.00;4967107;28;20055;-70
2023/09/20 04:16:59;;;;;;;1.30;1.30;;;;;;;15.91;92.03;97133.16;4966835;28;20126;-71
2023/09/20 04:19:26;;;;;;;1.27;1.27;;;;;;;15.74;92.18;97116.44;4965865;28;20051;-71
2023/09/20 04:21:52;;;;;;;1.45;1.45;;;;;;;15.86;92.76;97132.75;4966463;28;20138;-71
2023/09/20 04:24:19;;;;;;;1.33;1.33;;;;;;;15.82;93.42;97141.13;4966612;28;20051;-73
2023/09/20 04:26:46;;;;;;;1.20;1.20;;;;;;;15.89;93.52;97148.69;4966797;28;20065;-71
2023/09/20 04:29:12;;;;;;;1.30;1.30;;;;;;;15.89;93.42;97152.31;4965731;28;20453;-72
2023/09/20 04:31:40;;;;;;;1.30;1.30;;;;;;;15.47;93.71;97071.41;4966846;28;20058;-73
2023/09/20 04:34:07;;;;;;;1.23;1.23;;;;;;;15.69;95.03;97130.78;4966827;28;20510;-72
2023/09/20 04:36:34;;;;;;;1.40;1.40;;;;;;;15.73;94.18;97143.56;4965596;28;20051;-73
2023/09/20 04:39:01;;;;;;;1.30;1.30;;;;;;;14.99;95.15;97053.47;4966572;28;20062;-72
2023/09/20 04:41:27;;;;;;;1.30;1.30;;;;;;;15.62;95.11;97150.34;4965327;28;20062;-72
2023/09/20 04:43:54;;;;;;;1.30;1.30;;;;;;;15.67;95.29;97145.16;4966126;28;20046;-73
2023/09/20 04:46:21;;;;;;;1.40;1.40;;;;;;;15.72;94.75;97141.97;4968313;28;20046;-70
2023/09/20 04:48:47;;;;;;;1.30;1.30;;;;;;;15.84;93.74;97143.56;4985475;28;20430;-70
2023/09/20 04:51:14;;;;;;;1.33;1.33;;;;;;;15.90;93.10;97148.31;4985527;28;20054;-68
2023/09/20 04:53:40;;;;;;;1.38;1.38;;;;;;;15.85;93.45;97151.53;4985733;28;20050;-71
2023/09/20 04:56:09;;;;;;;1.27;1.27;;;;;;;15.72;93.36;97110.44;4985349;28;20513;-71
2023/09/20 04:58:35;;;;;;;1.25;1.25;;;;;;;15.96;92.19;97132.75;4979229;28;20415;-71
2023/09/20 05:01:02;;;;;;;1.30;1.30;;;;;;;16.27;90.98;97145.00;4964594;28;20506;-71
2023/09/20 05:03:29;;;;;;;1.40;1.40;;;;;;;16.39;90.31;97153.75;4966367;28;20058;-71
2023/09/20 05:05:56;;;;;;;1.40;1.40;;;;;;;16.45;89.92;97157.75;4965933;28;20532;-72
2023/09/20 05:08:23;;;;;;;1.40;1.40;;;;;;;16.61;89.00;97155.28;4964408;28;20530;-71
2023/09/20 05:10:49;;;;;;;1.52;1.52;;;;;;;16.81;86.98;97161.19;4965600;28;20522;-71
2023/09/20 05:13:17;;;;;;;1.58;1.58;;;;;;;16.78;86.52;97150.00;4965268;28;20443;-70
2023/09/20 05:15:43;;;;;;;1.40;1.40;;;;;;;16.98;86.59;97156.66;4980640;28;20057;-71
2023/09/20 05:18:11;;;;;;;1.60;1.60;;;;;;;16.49;85.50;97048.66;4964275;28;20073;-72
2023/09/20 05:20:38;;;;;;;1.80;1.80;;;;;;;17.27;84.71;97158.09;4965889;28;20137;-72
2023/09/20 05:23:05;;;;;;;1.70;1.70;;;;;;;17.38;84.53;97161.59;4966259;28;20065;-72
2023/09/20 05:25:33;;;;;;;1.60;1.60;;;;;;;16.86;83.62;97045.22;4964274;28;20059;-71
2023/09/20 05:28:01;;;;;;;1.63;1.63;;;;;;;17.59;83.44;97144.66;4965979;28;20054;-71
2023/09/20 05:30:27;;;;;;;1.70;1.70;;;;;;;17.89;82.72;97167.19;4965303;28;20054;-70
2023/09/20 05:32:54;;;;;;;1.48;1.48;;;;;;;17.75;82.83;97167.34;4963513;28;20073;-72
2023/09/20 05:35:21;;;;;;;1.60;1.60;;;;;;;17.92;82.78;97169.16;4965315;28;20051;-72
2023/09/20 05:37:48;;;;;;;1.70;1.70;;;;;;;18.06;82.22;97164.22;4965637;28;20046;-71
2023/09/20 05:40:17;;;;;;;1.48;1.48;;;;;;;18.14;81.96;97167.75;4964034;28;20054;-71
2023/09/20 05:42:50;;;;;;;1.60;1.60;;;;;;;17.03;81.14;96963.94;4965192;28;20071;-66
2023/09/20 05:45:20;;;;;;;1.75;1.75;;;;;;;18.13;81.11;97109.28;4962316;28;20155;-62
2023/09/20 05:47:49;;;;;;;1.63;1.63;;;;;;;18.09;80.21;97078.47;4965522;28;20486;-62
2023/09/20 05:50:16;;;;;;;1.70;1.70;;;;;;;18.63;79.42;97155.16;4964963;28;20138;-62
2023/09/20 05:52:43;;;;;;;1.67;1.67;;;;;;;18.05;78.70;97024.47;4965294;28;20122;-62
2023/09/20 05:55:14;;;;;;;1.88;1.88;;;;;;;18.94;78.18;97135.09;4964271;28;20561;-65
2023/09/20 05:57:42;;;;;;;1.70;1.70;;;;;;;19.35;76.81;97168.59;4964982;28;20055;-69
2023/09/20 06:00:16;;;;;;;1.80;1.80;;;;;;;19.41;76.47;97178.94;4963913;28;20058;-61
2023/09/20 06:02:44;;;;;;;2.00;2.00;;;;;;;19.55;75.57;97178.72;4965044;28;20058;-61
2023/09/20 06:05:11;;;;;;;1.80;1.80;;;;;;;19.63;75.05;97164.56;4963786;28;20061;-60
2023/09/20 06:07:40;;;;;;;1.80;1.80;;;;;;;19.90;74.43;97165.31;4962777;28;20066;-59
2023/09/20 06:10:10;;;;;;;2.20;2.20;;;;;;;20.18;73.33;97181.69;4964503;28;20402;-64
2023/09/20 06:12:37;;;;;;;2.00;2.00;;;;;;;19.95;71.67;97100.16;4964174;28;20054;-70
2023/09/20 06:15:07;;;;;;;2.13;2.13;;;;;;;19.36;71.27;97002.44;4963974;28;20054;-63
2023/09/20 06:17:34;;;;;;;2.00;2.00;;;;;;;20.57;71.18;97181.72;4965097;28;20516;-62
2023/09/20 06:20:01;;;;;;;2.15;2.15;;;;;;;20.38;70.98;97131.84;4963890;28;20051;-60
2023/09/20 06:22:29;;;;;;;1.98;1.98;;;;;;;20.78;70.10;97147.53;4963848;28;20125;-59
2023/09/20 06:24:58;;;;;;;2.30;2.30;;;;;;;21.19;68.44;97178.84;4963750;28;20062;-65
2023/09/20 06:27:25;;;;;;;2.00;2.00;;;;;;;21.41;68.14;97179.94;4963183;28;20083;-70
2023/09/20 06:29:52;;;;;;;2.60;2.50;;;;;;;21.11;67.01;97103.34;4961132;28;20117;-68
2023/09/20 06:32:20;;;;;;;2.22;2.22;;;;;;;21.51;66.31;97156.34;4964045;28;20513;-61
2023/09/20 06:34:47;;;;;;;2.50;2.40;;;;;;;21.80;66.13;97174.16;4964345;28;20065;-71
2023/09/20 06:37:24;;;;;;;2.13;2.13;;;;;;;22.00;65.21;97183.31;4977918;28;20087;-62
2023/09/20 06:39:53;;;;;;;2.45;2.35;;;;;;;21.87;64.82;97167.56;4963976;28;20426;-69
2023/09/20 06:42:19;;;;;;;2.67;2.58;;;;;;;22.15;64.78;97178.09;4964749;28;20061;-62
2023/09/20 06:44:46;;;;;;;2.67;2.58;;;;;;;21.71;64.33;97086.56;4964259;28;20062;-63
2023/09/20 06:47:13;;;;;;;2.50;2.40;;;;;;;21.85;62.92;97093.88;4964963;28;20055;-61
2023/09/20 06:49:40;;;;;;;2.50;2.40;;;;;;;22.53;61.99;97181.13;4964352;28;20059;-66
2023/09/20 06:52:08;;;;;;;2.58;2.47;;;;;;;20.71;62.09;96889.44;4964300;28;20047;-67
2023/09/20 06:54:37;;;;;;;2.58;2.47;;;;;;;22.49;62.33;97182.00;4965351;28;20059;-63
2023/09/20 06:57:05;;;;;;;2.45;2.38;;;;;;;22.56;61.66;97161.28;4966523;28;20422;-63
2023/09/20 06:59:33;;;;;;;2.80;2.70;;;;;;;22.22;63.75;97190.00;4967846;28;20047;-62
2023/09/20 07:02:01;;;;;;;2.50;2.40;;;;;;;22.41;63.03;97199.59;4968055;28;20528;-69
2023/09/20 07:04:28;;;;;;;2.33;2.30;;;;;;;22.49;63.26;97249.75;4965808;28;20133;-62
2023/09/20 07:06:57;;;;;;;2.72;2.63;;;;;;;22.62;62.20;97195.44;4967532;28;20162;-65
2023/09/20 07:09:24;;;;;;;2.70;2.60;;;;;;;22.66;60.75;97162.22;4966240;28;20532;-68
2023/09/20 07:11:50;;;;;;;2.67;2.58;;;;;;;22.77;61.32;97154.22;4967648;28;20065;-63
2023/09/20 07:14:20;;;;;;;2.65;2.55;;;;;;;22.86;60.66;97131.78;4967456;28;20561;-60
2023/09/20 07:16:51;;;;;;;2.50;2.40;;;;;;;23.47;59.69;97189.63;4968157;28;20434;-60
2023/09/20 07:19:20;;;;;;;3.00;2.90;;;;;;;23.21;60.08;97167.44;4967541;28;20143;-63
2023/09/20 07:21:46;;;;;;;3.20;3.10;;;;;;;22.83;59.02;97076.16;4967885;28;20505;-66
2023/09/20 07:24:14;;;;;;;2.90;2.80;;;;;;;23.75;59.14;97204.94;4966266;28;20580;-61
2023/09/20 07:26:43;;;;;;;3.20;3.10;;;;;;;23.78;59.15;97198.34;4967704;28;20127;-64
2023/09/20 07:29:12;;;;;;;3.15;3.05;;;;;;;23.90;58.45;97172.06;4967112;28;20125;-62
2023/09/20 07:31:39;;;;;;;2.80;2.70;;;;;;;23.96;58.67;97192.94;4967397;28;20055;-68
2023/09/20 07:34:06;;;;;;;3.30;3.20;;;;;;;24.07;57.16;97178.44;4967061;28;20425;-62
2023/09/20 07:36:37;;;;;;;3.20;3.10;;;;;;;23.80;56.60;97130.81;4967192;28;20059;-61
2023/09/20 07:39:05;;;;;;;3.40;3.30;;;;;;;24.52;56.29;97191.00;4966822;28;20491;-65
2023/09/20 07:41:32;;;;;;;3.17;3.08;;;;;;;24.15;54.88;97111.84;4966374;28;20057;-65
2023/09/20 07:43:59;;;;;;;3.33;3.22;;;;;;;24.88;54.46;97188.47;4966900;28;20043;-63
2023/09/20 07:46:25;;;;;;;3.40;3.30;;;;;;;25.06;53.72;97193.47;4965675;28;20134;-67
2023/09/20 07:48:52;;;;;;;3.30;3.20;;;;;;;25.23;53.47;97187.13;4966131;28;20122;-68
2023/09/20 07:51:20;;;;;;;3.33;3.22;;;;;;;24.74;53.01;97095.50;4965203;28;20133;-64
2023/09/20 07:53:53;;;;;;;3.42;3.33;;;;;;;25.42;52.92;97184.44;4967190;28;20572;-68
2023/09/20 07:56:22;;;;;;;3.55;3.45;;;;;;;25.57;52.70;97185.44;4967317;28;20063;-68
2023/09/20 07:58:51;;;;;;;3.47;3.38;;;;;;;25.42;51.47;97156.84;4965962;28;20514;-63
2023/09/20 08:01:19;;;;;;;3.53;3.42;;;;;;;25.90;50.55;97197.88;4966962;28;20125;-64
2023/09/20 08:03:50;;;;;;;3.50;3.40;;;;;;;25.87;50.63;97187.47;4966897;28;20549;-64
2023/09/20 08:06:19;;;;;;;3.55;3.45;;;;;;;25.85;50.78;97185.09;4963562;28;20059;-62
2023/09/20 09:27:37;;;;;;;1.85;1.85;;;;;;;29.78;41.72;97113.59;5184296;27;20406;-65
2023/09/20 09:30:05;;;;;;;1.85;1.85;;;;;;;29.61;41.35;97103.19;5185102;27;20510;-65
2023/09/20 09:32:35;;;;;;;1.77;1.77;;;;;;;28.45;43.45;97086.75;5184885;27;20045;-65
2023/09/20 09:35:06;;;;;;;1.70;1.70;;;;;;;28.71;43.04;97110.63;5176941;27;20057;-65
2023/09/20 09:37:35;;;;;;;1.83;1.83;;;;;;;28.45;43.24;97075.34;5173482;27;20049;-66
2023/09/20 09:40:04;;;;;;;1.50;1.50;;;;;;;28.51;43.31;97101.94;5162885;27;20603;-66
2023/09/20 09:42:31;;;;;;;1.60;1.60;;;;;;;28.14;43.75;97113.59;5179403;27;20136;-66
2023/09/20 09:44:58;;;;;;;1.70;1.70;;;;;;;27.30;44.94;96986.13;5183824;27;20522;-66
2023/09/20 09:47:25;;;;;;;1.85;1.85;;;;;;;28.03;43.97;97104.00;5155536;27;20056;-67
2023/09/20 09:49:53;;;;;;;1.58;1.58;;;;;;;27.46;45.36;97108.06;5168095;27;20546;-65
2023/09/20 09:52:24;;;;;;;1.60;1.60;;;;;;;27.75;44.78;97106.19;5162492;27;20054;-66
2023/09/20 09:54:52;;;;;;;1.70;1.70;;;;;;;27.32;44.63;97081.09;5162681;27;20469;-66
2023/09/20 09:57:19;;;;;;;1.80;1.80;;;;;;;27.19;45.09;97037.81;5162558;27;20066;-67
2023/09/20 09:59:46;;;;;;;1.48;1.48;;;;;;;28.17;44.17;97101.22;5162439;27;20046;-67
2023/09/20 10:02:18;;;;;;;1.58;1.58;;;;;;;28.05;44.00;97096.56;5162631;27;20115;-66
2023/09/20 10:05:01;;;;;;;1.70;1.70;;;;;;;28.26;43.63;97085.31;5162305;27;20238;-66
2023/09/20 10:07:36;;;;;;;1.70;1.70;;;;;;;28.36;44.06;97090.47;5160617;27;20093;-67
2023/09/20 10:10:12;;;;;;;1.52;1.52;;;;;;;28.64;42.38;97103.25;5162104;27;20554;-68
2023/09/20 10:12:40;;;;;;;1.90;1.90;;;;;;;28.60;43.60;97093.28;5162399;27;20047;-65
2023/09/20 10:15:09;;;;;;;1.60;1.60;;;;;;;28.84;42.69;97088.31;5161893;27;20240;-67
2023/09/20 10:17:44;;;;;;;1.60;1.60;;;;;;;28.84;41.85;97094.03;5161997;27;20050;-67
2023/09/20 10:20:15;;;;;;;1.63;1.63;;;;;;;29.02;42.06;97082.44;5160536;27;20137;-66
2023/09/20 10:22:45;;;;;;;1.70;1.70;;;;;;;28.74;41.85;97029.81;5162182;27;20046;-67
2023/09/20 10:25:48;;;;;;;1.80;1.80;;;;;;;29.25;41.24;97092.97;5161751;27;20129;-66
2023/09/20 10:28:17;;;;;;;1.55;1.55;;;;;;;29.61;40.56;97080.34;5102429;27;20042;-71
2023/09/20 10:31:03;;;;;;;1.70;1.70;;;;;;;29.15;39.51;96946.00;5143698;27;20047;-65
2023/09/20 10:33:55;;;;;;;1.80;1.80;;;;;;;30.29;39.13;97073.81;5141291;27;20046;-63
2023/09/20 10:36:28;;;;;;;1.88;1.88;;;;;;;30.25;38.17;97021.78;5128931;27;20103;-65
2023/09/20 10:39:17;;;;;;;1.70;1.70;;;;;;;30.68;38.15;97072.19;5139875;27;20053;-64
2023/09/20 10:41:45;;;;;;;2.10;2.10;;;;;;;30.70;37.63;97063.88;5137348;27;20180;-63
2023/09/20 10:44:30;;;;;;;1.67;1.67;;;;;;;30.70;37.01;97058.16;5141804;27;20058;-61
2023/09/20 10:46:58;;;;;;;1.70;1.70;;;;;;;30.45;36.58;96984.59;5141309;27;20047;-67
2023/09/20 10:49:41;;;;;;;2.00;2.00;;;;;;;30.91;36.66;97005.34;5129610;27;20441;-69
2023/09/20 10:52:08;;;;;;;1.70;1.70;;;;;;;29.40;38.10;96951.03;5131393;27;20043;-73
2023/09/20 10:54:39;;;;;;;1.80;1.80;;;;;;;30.57;38.22;97060.63;5146674;27;20053;-64
2023/09/20 10:57:10;;;;;;;1.77;1.77;;;;;;;30.76;37.25;97056.19;5146284;27;20046;-69
2023/09/20 10:59:41;;;;;;;1.70;1.70;;;;;;;31.09;36.97;97057.81;5145347;27;20050;-66
2023/09/20 11:02:16;;;;;;;1.85;1.85;;;;;;;30.72;37.23;97052.75;5144538;27;20159;-71
2023/09/20 11:04:46;;;;;;;1.63;1.63;;;;;;;30.82;36.88;97059.91;5139405;27;20059;-67
2023/09/20 11:07:14;;;;;;;1.80;1.80;;;;;;;30.74;36.36;97058.75;5133345;27;20096;-64
2023/09/20 11:09:42;;;;;;;1.83;1.83;;;;;;;31.41;35.48;97053.69;5132012;27;20051;-71
2023/09/20 11:12:11;;;;;;;2.10;2.10;;;;;;;31.63;34.68;97042.41;5135668;27;20572;-64
2023/09/20 11:14:42;;;;;;;1.60;1.60;;;;;;;31.54;35.30;97048.28;5129757;27;20055;-70
2023/09/20 11:17:16;;;;;;;1.52;1.52;;;;;;;31.06;35.41;97050.22;5146674;27;20077;-70
2023/09/20 11:19:43;;;;;;;2.00;2.00;;;;;;;31.07;35.44;97046.88;5140127;27;20063;-74
2023/09/20 11:22:10;;;;;;;1.88;1.88;;;;;;;31.11;35.43;97035.19;5145463;27;20134;-71
2023/09/20 11:24:40;;;;;;;2.10;2.10;;;;;;;31.38;35.22;97031.81;5132889;27;20134;-64
2023/09/20 11:27:08;;;;;;;1.88;1.88;;;;;;;31.28;34.79;97021.78;5128175;27;20505;-71
2023/09/20 11:29:37;;;;;;;1.80;1.80;;;;;;;30.41;35.46;96926.84;5130204;27;20095;-67
2023/09/20 11:32:09;;;;;;;1.80;1.80;;;;;;;30.55;35.71;97011.75;5138023;27;20073;-75
2023/09/20 11:34:48;;;;;;;1.75;1.75;;;;;;;30.51;35.28;96896.78;5135502;27;20104;-73
2023/09/20 11:37:17;;;;;;;1.80;1.80;;;;;;;30.13;36.31;96934.31;5126736;27;20062;-74
2023/09/20 11:39:54;;;;;;;1.95;1.95;;;;;;;30.63;36.00;96966.31;5148736;27;20067;-64
2023/09/20 11:42:24;;;;;;;1.85;1.85;;;;;;;30.66;36.79;97023.28;5138161;27;20054;-70
2023/09/20 11:44:58;;;;;;;2.03;2.03;;;;;;;31.03;36.76;97022.63;5129848;27;20047;-69
2023/09/20 11:47:42;;;;;;;1.95;1.95;;;;;;;31.04;36.77;96984.13;5145746;27;20150;-63
2023/09/20 11:50:14;;;;;;;2.05;2.05;;;;;;;30.54;37.13;97010.16;5143717;27;20055;-76
2023/09/20 11:52:46;;;;;;;2.00;2.00;;;;;;;29.99;37.14;96955.19;5141556;27;20074;-63
2023/09/20 11:55:16;;;;;;;1.85;1.85;;;;;;;30.63;35.97;96920.53;5127907;27;20520;-69
2023/09/20 11:57:47;;;;;;;1.90;1.90;;;;;;;30.36;37.04;96987.63;5131362;27;20521;-69
2023/09/20 12:00:16;;;;;;;1.70;1.70;;;;;;;30.02;37.50;96947.72;5128883;27;20043;-66
2023/09/20 12:02:44;;;;;;;2.00;2.00;;;;;;;30.41;37.46;96966.88;5132441;27;20076;-65
2023/09/20 12:05:11;;;;;;;2.22;2.22;;;;;;;31.20;36.99;97004.31;5137313;27;20047;-70
2023/09/20 12:07:38;;;;;;;1.90;1.90;;;;;;;30.91;37.20;97010.28;5138750;27;20043;-72
2023/09/20 12:10:06;;;;;;;1.90;1.90;;;;;;;31.55;36.57;97004.06;5139843;27;20130;-63
2023/09/20 12:12:34;;;;;;;2.05;2.05;;;;;;;31.56;35.99;96994.16;5141133;27;20043;-64
2023/09/20 12:15:02;;;;;;;1.73;1.73;;;;;;;32.03;35.97;96996.25;5140768;27;20057;-70
2023/09/20 12:17:29;;;;;;;1.90;1.90;;;;;;;32.31;35.07;97000.81;5133774;27;20436;-66
2023/09/20 12:19:56;;;;;;;1.80;1.80;;;;;;;32.40;34.93;96987.56;5136757;27;20158;-73
2023/09/20 12:22:22;;;;;;;1.80;1.80;;;;;;;31.02;34.87;96752.81;5129061;27;20053;-62
2023/09/20 12:24:49;;;;;;;2.03;2.03;;;;;;;32.05;35.62;96982.19;5135055;27;20548;-63
2023/09/20 12:27:17;;;;;;;1.80;1.80;;;;;;;31.83;35.44;96891.16;5137809;27;20138;-69
2023/09/20 12:29:44;;;;;;;1.92;1.92;;;;;;;31.77;35.36;96901.03;5140106;27;20058;-68
2023/09/20 12:32:11;;;;;;;2.00;2.00;;;;;;;31.22;36.67;96978.03;5124913;27;20058;-72
2023/09/20 12:34:37;;;;;;;1.70;1.70;;;;;;;31.04;37.76;96981.25;5132955;27;20039;-68
2023/09/20 12:37:05;;;;;;;1.90;1.90;;;;;;;31.09;37.23;96984.19;5136499;27;20055;-72
2023/09/20 12:39:36;;;;;;;2.08;2.08;;;;;;;30.80;37.41;96981.56;5135293;27;20046;-73
2023/09/20 12:42:07;;;;;;;1.90;1.90;;;;;;;29.97;37.99;96937.75;5126393;27;20125;-69
2023/09/20 12:44:34;;;;;;;1.98;1.98;;;;;;;29.83;38.63;96921.50;5126432;27;20054;-66
2023/09/20 12:47:01;;;;;;;1.73;1.73;;;;;;;29.67;38.46;96867.81;5141808;27;20039;-64
2023/09/20 12:49:27;;;;;;;1.90;1.90;;;;;;;27.49;39.52;96607.03;5143338;27;20046;-68
2023/09/20 12:51:54;;;;;;;1.58;1.58;;;;;;;30.14;38.97;96978.75;5139424;27;20043;-68
2023/09/20 12:54:21;;;;;;;2.00;2.00;;;;;;;30.56;38.35;96973.25;5124479;27;20047;-63
2023/09/20 12:56:49;;;;;;;1.70;1.70;;;;;;;30.94;37.73;96970.00;5140746;27;20043;-69
2023/09/20 12:59:16;;;;;;;2.15;2.15;;;;;;;30.72;38.10;96955.47;5141979;27;20099;-61
2023/09/20 13:01:45;;;;;;;1.75;1.75;;;;;;;30.60;38.51;96967.31;5141962;27;20049;-66